JP Observations

RJNY 171919Z 26004KT 8000 FEW010 BKN020 BKN050 27/26 Q1011 RMK 1CU010 5CU020 7SC050 A2986 RJSH 171907Z VRB02KT 2300 -SHRA BCFG BR FEW002 SCT010 BKN025 22/21 Q1009 RMK 2ST002 4ST010 6CU025 A2982 RJSH 171913Z 06002KT 1500 R25/1500D -SHRA BCFG BR FEW001 SCT002 BKN007 22/21 Q1009 RMK 2ST001 3ST002 5ST007 A2982 RJSH 171919Z 07002KT 1100 R25/0700V0900N -SHRA BCFG BR FEW001 BKN002 OVC006 22/21 Q1009 RMK 2ST001 5ST002 8ST006 A2982 R0750 RJSH 171923Z 07002KT 0900 R25/0700N -SHRA FG SCT001 BKN002 OVC005 22/21 Q1009 RMK 3ST001 6ST002 8ST005 A2982 RJAA 171900Z 16003KT 130V200 8000 FEW015 BKN/// 25/24 Q1010 TEMPO 4000 BR RJAA 171900Z 16003KT 130V200 8000 FEW015 BKN/// 25/24 Q1010 TEMPO 4000 BR RMK 1CU015 A2985 RJAH 171900Z 21003KT 5000 BR FEW015 BKN/// 26/25 Q1010 RJBB 171900Z AUTO 24005KT 9999 SCT038 26/24 Q1011 NOSIG RJCC 171900Z 35004KT 9999 FEW010 BKN035 18/16 Q1010 RJCC 171900Z 35004KT 9999 FEW010 BKN035 18/16 Q1010 RMK 1ST010 7CU035 A2984 RJFF 171900Z AUTO VRB02KT 9999 NCD 27/22 Q1011 RJFF 171900Z AUTO VRB02KT 9999 NCD 27/22 Q1011 RMK A2988 RJFR 171900Z 35001KT 8000 FEW025 26/21 Q1011 RJFS 171900Z 12003KT 7000 SCT045 BKN/// 26/24 Q1011 RJGG 171900Z 05004KT 9000 FEW015 BKN/// 27/25 Q1011 NOSIG RJNK 171900Z 19003KT 150V210 7000 SCT/// 25/23 Q1012 RJOH 171900Z 18003KT 9999 FEW/// 26/23 Q1011 RJOI 171855Z 00000KT 9999 FEW060 28/22 A2989 RMK SLP119 T02780222 RJSH 171903Z 05002KT 4900 -SHRA BR FEW005 SCT010 BKN025 23/21 Q1009 RMK 1ST005 3ST010 5CU025 A2982 RJTT 171900Z 20006KT 9999 FEW010 BKN/// 28/25 Q1010 NOSIG RJTT 171900Z 20006KT 9999 FEW010 BKN/// 28/25 Q1010 NOSIG RMK 1CU010 A2984 RJTY 171856Z AUTO 03004KT 10SM CLR 27/24 A2990 RMK AO2 SLP118 T02680240 FZRANO $ ROAH 171900Z 11007KT 070V200 9999 FEW010 28/25 Q1006 ROAH 171900Z 11007KT 070V200 9999 FEW010 28/25 Q1006 RMK 2CU010 A2973 RODN 171856Z AUTO 08010KT 10SM -RA FEW027 SCT120 26/25 A2975 RMK AO2 RAB35 SLP079 P0000 T02630247 $ ROYN 171900Z AUTO 10006KT 9999 FEW017 SCT021 27/25 Q1005 ROTM 171856Z 10012KT 9999 SCT009 BKN014 27/25 A2976 RMK SLP063 STNPR29490 T02670250